Time;durP1;ratioP1;P1;durP2;ratioP2;P2;SDS_P1;SDS_P2;PMS_P1;PMS_P2;Temp;Humidity;BMP_temperature;BMP_pressure;BME280_temperature;BME280_humidity;BME280_pressure;Samples;Min_cycle;Max_cycle;Signal;HPM_P1;HPM_P2
2022/06/02 00:01:13;;;;;;;11.57;7.10;;;;;;;-143.84;74.13;45022.41;5130540;27;20454;-71
2022/06/02 00:03:45;;;;;;;11.37;7.93;;;;;;;-143.84;74.45;45030.03;5130391;27;20556;-70
2022/06/02 00:06:21;;;;;;;15.67;6.80;;;;;;;-143.84;74.92;45024.31;5130889;27;20427;-71
2022/06/02 00:09:00;;;;;;;13.50;7.83;;;;;;;-143.84;74.74;45007.19;5130391;27;20485;-70
2022/06/02 00:11:46;;;;;;;15.60;7.83;;;;;;;-143.84;74.95;45018.59;5130717;27;20442;-71
2022/06/02 00:14:20;;;;;;;19.33;7.20;;;;;;;-143.84;75.01;45016.69;5130450;27;20487;-71
2022/06/02 00:16:57;;;;;;;9.03;7.23;;;;;;;-143.84;74.96;45047.16;5130541;27;20437;-76
2022/06/02 00:19:35;;;;;;;9.37;6.70;;;;;;;-143.84;74.87;45039.53;5131076;27;20453;-76
2022/06/02 00:22:08;;;;;;;13.07;7.27;;;;;;;-143.84;74.50;44997.66;5130511;27;20442;-76
2022/06/02 00:24:43;;;;;;;7.60;6.90;;;;;;;-143.84;74.24;45005.28;5130844;27;20449;-76
2022/06/02 00:27:21;;;;;;;10.07;7.67;;;;;;;-143.84;74.10;45014.78;5130768;27;20433;-76
2022/06/02 00:30:00;;;;;;;19.17;7.40;;;;;;;-143.84;74.22;45037.66;5130469;27;20438;-73
2022/06/02 00:32:39;;;;;;;7.23;6.27;;;;;;;-143.84;74.02;45047.16;5129713;27;20818;-73
2022/06/02 00:35:24;;;;;;;12.00;7.30;;;;;;;-143.84;73.64;45018.59;5130166;27;20441;-73
2022/06/02 00:37:54;;;;;;;21.93;6.57;;;;;;;-143.84;72.58;45022.41;5130412;27;20426;-73
2022/06/02 00:40:22;;;;;;;10.83;6.50;;;;;;;-143.84;71.74;45035.75;5129634;27;20449;-73
2022/06/02 00:42:57;;;;;;;10.13;6.20;;;;;;;-143.84;70.99;45039.53;5129540;27;20488;-73
2022/06/02 00:45:24;;;;;;;13.57;6.67;;;;;;;-143.84;71.10;45014.78;5129262;27;20478;-73
2022/06/02 00:48:06;;;;;;;17.73;6.40;;;;;;;-143.84;70.91;45024.31;5129763;27;20434;-73
2022/06/02 00:51:03;;;;;;;26.83;7.80;;;;;;;-143.84;71.33;45043.34;5130069;27;20532;-73
2022/06/02 00:53:40;;;;;;;14.47;6.67;;;;;;;-143.84;70.77;45043.34;5079539;27;20486;-73
2022/06/02 00:59:20;;;;;;;12.10;6.37;;;;;;;-143.84;70.73;45028.13;5129884;27;20496;-73
2022/06/02 01:01:47;;;;;;;11.13;7.30;;;;;;;-143.84;70.21;45014.78;5129306;27;20852;-73
2022/06/02 01:04:19;;;;;;;9.50;5.80;;;;;;;-143.84;70.37;45014.78;5128865;27;20481;-73
2022/06/02 01:07:04;;;;;;;13.23;6.40;;;;;;;-143.84;70.23;45020.50;5129579;27;20804;-73
2022/06/02 01:10:00;;;;;;;10.83;6.67;;;;;;;-143.84;70.46;44990.03;5129809;27;20442;-73
2022/06/02 01:12:47;;;;;;;9.60;6.40;;;;;;;-143.84;69.84;45007.19;5126860;27;20536;-73
2022/06/02 01:15:26;;;;;;;18.20;6.90;;;;;;;-143.84;69.96;45039.53;5129361;28;20445;-73
2022/06/02 01:18:06;;;;;;;8.90;6.00;;;;;;;-143.84;70.23;45024.31;5129628;28;20433;-73
2022/06/02 01:20:49;;;;;;;7.97;6.80;;;;;;;-143.84;70.85;45043.34;5130926;27;20445;-73
2022/06/02 01:23:46;;;;;;;17.60;6.43;;;;;;;-143.84;70.80;45045.25;5133887;27;20465;-73
2022/06/02 01:26:37;;;;;;;16.00;6.37;;;;;;;-143.84;70.66;45043.34;5134051;27;20861;-73
2022/06/02 01:29:24;;;;;;;9.90;5.80;;;;;;;-143.84;70.80;45043.34;5133786;27;20454;-73
2022/06/02 01:31:58;;;;;;;14.03;6.43;;;;;;;-143.84;70.84;45075.72;5133606;27;20454;-73
2022/06/02 01:34:38;;;;;;;9.10;6.40;;;;;;;-143.84;70.98;45054.78;5133682;27;20486;-73
2022/06/02 01:37:13;;;;;;;13.13;7.50;;;;;;;-143.84;71.20;45018.59;5133748;27;20437;-73
2022/06/02 01:39:55;;;;;;;11.93;6.93;;;;;;;-143.84;70.95;45039.53;5133477;27;20498;-73
2022/06/02 01:42:33;;;;;;;9.60;6.33;;;;;;;-143.84;70.69;45022.41;5133620;27;20958;-73
2022/06/02 01:45:06;;;;;;;10.87;6.00;;;;;;;-143.84;70.88;45024.31;5133447;27;20829;-73
2022/06/02 01:47:37;;;;;;;9.80;6.33;;;;;;;-143.84;70.91;45020.50;5133580;27;20438;-73
2022/06/02 01:50:29;;;;;;;10.97;6.50;;;;;;;-143.84;71.03;45022.41;5133417;27;20434;-73
2022/06/02 01:53:06;;;;;;;8.40;5.93;;;;;;;-143.84;70.62;45028.13;5133470;27;20927;-73
2022/06/02 01:55:53;;;;;;;11.30;5.97;;;;;;;-143.84;71.05;45001.47;5133276;27;20849;-73
2022/06/02 01:58:35;;;;;;;19.63;6.77;;;;;;;-143.84;70.85;45030.03;5132940;27;20481;-73
2022/06/02 02:01:08;;;;;;;9.27;6.23;;;;;;;-143.84;70.92;45054.78;5132961;27;20489;-73
2022/06/02 02:03:45;;;;;;;11.43;6.20;;;;;;;-143.84;70.78;45028.13;5132612;27;20481;-73
2022/06/02 02:06:22;;;;;;;9.63;6.23;;;;;;;-143.84;70.80;45022.41;5133051;27;20449;-73
2022/06/02 02:09:06;;;;;;;17.63;6.13;;;;;;;-143.84;70.77;45033.84;5133055;27;20474;-73
2022/06/02 02:11:45;;;;;;;13.80;6.37;;;;;;;-143.84;70.76;45037.66;5132423;27;20441;-73
2022/06/02 02:14:27;;;;;;;7.50;5.70;;;;;;;-143.84;70.91;45026.22;5132184;27;21201;-73
2022/06/02 02:17:05;;;;;;;7.80;5.80;;;;;;;-143.84;71.22;45045.25;5132572;27;21002;-73
2022/06/02 02:19:41;;;;;;;7.50;6.70;;;;;;;-143.84;71.49;45043.34;5132510;27;20441;-73
2022/06/02 02:22:17;;;;;;;10.80;6.20;;;;;;;-143.84;71.92;45031.94;5132462;27;20906;-73
2022/06/02 02:24:58;;;;;;;6.70;5.97;;;;;;;-143.84;71.88;45016.69;5132829;27;20505;-73
2022/06/02 02:28:02;;;;;;;12.03;6.67;;;;;;;-143.84;71.87;45026.22;5132110;27;20525;-73
2022/06/02 02:30:28;;;;;;;9.40;5.90;;;;;;;-143.84;72.13;45022.41;5123654;27;20552;-73
2022/06/02 02:32:59;;;;;;;6.00;5.40;;;;;;;-143.84;72.25;45028.13;5132077;27;20499;-73
2022/06/02 02:35:39;;;;;;;8.97;5.40;;;;;;;-143.84;71.99;45030.03;5131758;27;20434;-73
2022/06/02 02:38:13;;;;;;;9.23;5.40;;;;;;;-143.84;71.60;45018.59;5132382;27;20506;-73
2022/06/02 02:40:46;;;;;;;13.10;6.80;;;;;;;-143.84;71.95;45054.78;5132373;27;20954;-73
2022/06/02 02:43:18;;;;;;;12.47;6.43;;;;;;;-143.84;71.96;45022.41;5132218;27;20480;-73
2022/06/02 02:45:53;;;;;;;9.10;6.00;;;;;;;-143.84;72.06;45030.03;5132554;27;20430;-73
2022/06/02 02:48:30;;;;;;;12.97;6.20;;;;;;;-143.84;71.90;45049.06;5132519;27;20893;-73
2022/06/02 02:51:07;;;;;;;8.17;6.63;;;;;;;-143.84;72.07;45056.69;5132017;27;20502;-73
2022/06/02 02:53:39;;;;;;;12.83;6.93;;;;;;;-143.84;72.05;45020.50;5132470;27;20453;-73
2022/06/02 02:56:21;;;;;;;8.23;6.10;;;;;;;-143.84;71.80;45020.50;5131905;27;20434;-73
2022/06/02 02:58:56;;;;;;;14.43;7.03;;;;;;;-143.84;71.71;45047.16;5132123;27;20474;-73
2022/06/02 03:01:32;;;;;;;11.13;7.03;;;;;;;-143.84;71.82;45024.31;5131912;27;20501;-73
2022/06/02 03:04:18;;;;;;;7.80;6.23;;;;;;;-143.84;71.96;45043.34;5131768;27;20538;-73
2022/06/02 03:06:48;;;;;;;11.13;6.33;;;;;;;-143.84;72.12;45039.53;5112196;27;20462;-73
2022/06/02 03:09:19;;;;;;;18.33;6.70;;;;;;;-143.84;71.82;45018.59;5104274;28;20450;-73
2022/06/02 03:12:03;;;;;;;10.27;6.40;;;;;;;-143.84;72.14;45045.25;5107843;28;20462;-74
2022/06/02 03:14:55;;;;;;;13.13;6.87;;;;;;;-143.84;72.82;45043.34;5092489;28;20930;-75
2022/06/02 03:17:49;;;;;;;17.87;7.50;;;;;;;-143.84;73.39;45039.53;5112869;27;20511;-72
2022/06/02 03:20:22;;;;;;;10.20;6.83;;;;;;;-143.84;73.53;45031.94;5108495;27;20455;-73
2022/06/02 03:23:10;;;;;;;10.30;6.30;;;;;;;-143.84;73.87;45030.03;5120163;27;20438;-73
2022/06/02 03:25:42;;;;;;;12.63;6.70;;;;;;;-143.84;73.62;45037.66;5131538;27;21061;-73
2022/06/02 03:28:20;;;;;;;12.50;6.50;;;;;;;-143.84;73.10;45018.59;5131463;27;20502;-72
2022/06/02 03:30:54;;;;;;;12.90;6.67;;;;;;;-143.84;73.23;45026.22;5130762;27;20516;-72
2022/06/02 03:33:38;;;;;;;17.33;7.60;;;;;;;-143.84;73.21;45031.94;5131011;27;20441;-72
2022/06/02 03:36:16;;;;;;;11.13;7.30;;;;;;;-143.84;73.42;45022.41;5131515;27;20429;-72
2022/06/02 03:38:59;;;;;;;6.83;6.00;;;;;;;-143.84;71.51;45030.03;5130739;27;20858;-72
2022/06/02 03:41:55;;;;;;;7.30;5.57;;;;;;;-143.84;68.76;45024.31;5130206;27;20499;-72
2022/06/02 03:44:31;;;;;;;10.27;5.53;;;;;;;-143.84;65.66;44984.31;5128359;27;20504;-72
2022/06/02 03:47:20;;;;;;;8.60;5.70;;;;;;;-143.84;63.17;45001.47;5129216;27;20502;-72
2022/06/02 03:50:26;;;;;;;7.63;5.50;;;;;;;-143.84;60.29;44988.13;5129427;27;20938;-72
2022/06/02 03:53:20;;;;;;;8.27;5.27;;;;;;;-143.84;57.79;44978.63;5045013;28;20430;-72
2022/06/02 03:55:57;;;;;;;10.63;5.80;;;;;;;-143.84;55.83;44972.91;5129252;27;20434;-74
2022/06/02 03:58:41;;;;;;;8.37;5.43;;;;;;;-143.84;53.44;44965.28;5127555;27;20539;-73
2022/06/02 04:01:13;;;;;;;12.30;5.20;;;;;;;-143.84;52.14;44967.19;5110539;28;20427;-73
2022/06/02 04:04:09;;;;;;;10.37;4.67;;;;;;;-143.84;51.22;44953.88;5110116;28;20527;-73
2022/06/02 04:06:55;;;;;;;16.40;4.50;;;;;;;-143.84;49.99;44936.72;5108377;28;20447;-72
2022/06/02 04:09:42;;;;;;;17.53;4.53;;;;;;;-143.84;49.42;44942.44;5108992;28;20438;-73
2022/06/02 04:15:32;;;;;;;9.17;5.03;;;;;;;-143.84;45.81;44978.63;5110248;28;20560;-72
2022/06/02 04:18:07;;;;;;;16.37;5.07;;;;;;;-143.84;46.83;44971.00;5109883;28;20473;-73
2022/06/02 04:20:53;;;;;;;6.33;4.27;;;;;;;-143.84;46.78;44936.72;5110263;28;20513;-73
2022/06/02 04:23:55;;;;;;;9.50;6.03;;;;;;;-143.84;49.58;44953.88;5101467;28;20437;-73
2022/06/02 04:26:55;;;;;;;9.93;5.17;;;;;;;-143.84;47.94;44944.34;5106375;28;20435;-72
2022/06/02 04:29:43;;;;;;;9.20;5.33;;;;;;;-143.84;46.66;44946.25;5108799;28;20439;-73
2022/06/02 04:32:23;;;;;;;10.17;4.60;;;;;;;-143.84;46.47;44927.19;5108556;28;20466;-73
2022/06/02 04:34:59;;;;;;;12.63;5.00;;;;;;;-143.84;46.46;44927.19;5109086;28;20511;-72
2022/06/02 04:37:37;;;;;;;11.93;4.77;;;;;;;-143.84;45.27;44934.81;5109408;28;20435;-73
2022/06/02 04:40:14;;;;;;;9.50;4.57;;;;;;;-143.84;45.20;44915.78;5109400;28;20488;-72
2022/06/02 04:42:52;;;;;;;11.80;4.63;;;;;;;-143.84;45.30;44931.00;5109544;28;20525;-72
2022/06/02 04:45:36;;;;;;;19.40;5.90;;;;;;;-143.84;44.94;44923.41;5109146;28;20551;-72
2022/06/02 04:48:11;;;;;;;8.17;5.03;;;;;;;-143.84;44.92;44940.53;5109499;28;20798;-73
2022/06/02 04:50:46;;;;;;;12.33;4.87;;;;;;;-143.84;45.69;44923.41;5109313;28;20438;-72
2022/06/02 04:53:28;;;;;;;10.07;5.33;;;;;;;-143.84;44.96;44902.44;5109113;28;20430;-73
2022/06/02 04:56:07;;;;;;;7.60;4.30;;;;;;;-143.84;45.30;44913.88;5108031;28;20437;-72
2022/06/02 04:58:43;;;;;;;8.50;4.40;;;;;;;-143.84;43.88;44911.97;5113812;27;20470;-72
2022/06/02 05:01:28;;;;;;;10.47;5.20;;;;;;;-143.84;43.40;44910.06;5129855;27;20437;-72
2022/06/02 05:04:05;;;;;;;12.93;4.90;;;;;;;-143.84;43.36;44925.31;5129963;27;20565;-72
2022/06/02 05:06:39;;;;;;;6.10;4.70;;;;;;;-143.84;44.61;44898.66;5130213;27;20437;-72
2022/06/02 05:09:16;;;;;;;10.27;5.73;;;;;;;-143.84;45.34;44908.16;5129809;27;20826;-72
2022/06/02 05:11:55;;;;;;;11.00;5.80;;;;;;;-143.84;44.67;44919.59;5129595;27;20438;-72
2022/06/02 05:14:30;;;;;;;11.60;5.90;;;;;;;-143.84;44.47;44877.69;5129933;27;20459;-73
2022/06/02 05:17:12;;;;;;;11.57;5.70;;;;;;;-143.84;44.19;44862.47;5129636;28;20486;-73
2022/06/02 05:20:00;;;;;;;13.33;6.47;;;;;;;-143.84;44.92;44871.97;5129592;28;21287;-73
2022/06/02 05:23:06;;;;;;;10.80;4.83;;;;;;;-143.84;41.95;44885.31;5128873;28;20430;-73
2022/06/02 05:26:27;;;;;;;23.73;4.33;;;;;;;-143.84;42.18;44873.88;5122547;28;20894;-73
2022/06/02 05:29:30;;;;;;;6.37;4.50;;;;;;;-143.84;41.40;44894.84;5069003;28;20435;-73
2022/06/02 05:32:18;;;;;;;9.97;4.50;;;;;;;-143.84;41.39;44881.50;5129181;28;20442;-72
2022/06/02 05:35:30;;;;;;;7.77;4.60;;;;;;;-143.84;41.31;44889.13;5129569;28;20490;-72
2022/06/02 05:38:14;;;;;;;9.10;4.60;;;;;;;-143.84;41.91;44875.78;5103526;28;20485;-72
2022/06/02 05:40:49;;;;;;;10.43;4.40;;;;;;;-143.84;41.08;44879.59;5129667;28;20430;-72
2022/06/02 05:43:28;;;;;;;9.83;5.20;;;;;;;-143.84;41.34;44856.75;5129577;28;20498;-72
2022/06/02 05:46:09;;;;;;;14.97;5.00;;;;;;;-143.84;40.87;44847.22;5129157;28;20542;-72
2022/06/02 05:48:55;;;;;;;7.20;4.70;;;;;;;-143.84;40.61;44866.28;5129743;28;20474;-72
2022/06/02 05:51:31;;;;;;;12.13;5.13;;;;;;;-143.84;40.14;44877.69;5129581;28;20464;-72
2022/06/02 05:54:12;;;;;;;17.40;8.10;;;;;;;-143.84;42.45;44845.31;5129138;28;20445;-72
2022/06/02 05:56:50;;;;;;;18.03;10.57;;;;;;;-143.84;42.08;44892.94;5129158;28;20437;-72
2022/06/02 05:59:41;;;;;;;11.20;10.03;;;;;;;-143.84;42.59;44877.69;5129291;28;20561;-73
2022/06/02 06:02:34;;;;;;;13.93;9.80;;;;;;;-143.84;42.38;44883.41;5129190;28;20511;-73
2022/06/02 06:05:13;;;;;;;19.03;9.33;;;;;;;-143.84;43.32;44873.88;5111918;28;20482;-73
2022/06/02 06:07:58;;;;;;;18.83;6.23;;;;;;;-143.84;41.65;44868.19;5132358;27;20434;-73
2022/06/02 06:10:34;;;;;;;15.07;8.13;;;;;;;-143.84;42.85;44862.47;5133034;27;20487;-73
2022/06/02 06:13:13;;;;;;;15.63;8.50;;;;;;;-143.84;43.56;44871.97;5133260;27;20873;-73
2022/06/02 06:15:52;;;;;;;19.37;9.60;;;;;;;-143.84;42.72;44873.88;5132850;27;20943;-73
2022/06/02 06:18:30;;;;;;;21.50;8.27;;;;;;;-143.84;42.54;44866.28;5133098;27;20445;-73
2022/06/02 06:21:15;;;;;;;10.30;7.40;;;;;;;-143.84;41.97;44870.09;5133142;27;20942;-73
2022/06/02 06:24:03;;;;;;;13.53;7.20;;;;;;;-143.84;41.98;44860.56;5132738;27;20454;-73
2022/06/02 06:26:40;;;;;;;14.23;6.80;;;;;;;-143.84;42.12;44862.47;5132665;27;20450;-73
2022/06/02 06:29:25;;;;;;;18.63;6.60;;;;;;;-143.84;42.36;44830.09;5133031;27;20490;-73
2022/06/02 06:32:04;;;;;;;7.87;5.00;;;;;;;-143.84;39.48;44856.75;5132164;27;20442;-73
2022/06/02 06:34:44;;;;;;;15.80;6.53;;;;;;;-143.84;39.96;44832.00;5132226;27;20445;-73
2022/06/02 06:37:40;;;;;;;14.70;5.73;;;;;;;-143.84;39.09;44837.72;5132721;27;20429;-73
2022/06/02 06:40:16;;;;;;;12.27;6.17;;;;;;;-143.84;38.95;44847.22;5132639;27;20434;-73
2022/06/02 06:42:59;;;;;;;14.03;5.83;;;;;;;-143.84;37.72;44833.91;5132640;27;20845;-74
2022/06/02 06:45:31;;;;;;;15.77;6.40;;;;;;;-143.84;38.09;44847.22;5132476;27;20550;-73
2022/06/02 06:48:03;;;;;;;8.97;4.87;;;;;;;-143.84;37.18;44835.81;5131984;27;20442;-73
2022/06/02 06:50:38;;;;;;;12.70;5.33;;;;;;;-143.84;37.53;44833.91;5132206;27;20494;-73
2022/06/02 06:53:20;;;;;;;13.50;4.73;;;;;;;-143.84;36.91;44835.81;5132024;27;20436;-73
2022/06/02 06:56:01;;;;;;;11.83;4.30;;;;;;;-143.84;36.97;44828.19;5132428;27;20502;-73
2022/06/02 06:58:37;;;;;;;14.57;4.60;;;;;;;-143.84;36.98;44799.63;5131907;27;20847;-73
2022/06/02 07:01:10;;;;;;;11.23;4.47;;;;;;;-143.84;35.59;44845.31;5132344;27;20418;-73
2022/06/02 07:03:49;;;;;;;22.20;4.50;;;;;;;-143.84;35.16;44811.06;5132040;27;20470;-73
2022/06/02 07:06:38;;;;;;;13.30;3.90;;;;;;;-143.84;35.11;44812.97;5132246;27;20609;-73
2022/06/02 07:09:17;;;;;;;20.23;4.53;;;;;;;-143.84;34.13;44786.31;5131898;27;20456;-73
2022/06/02 07:14:47;;;;;;;16.50;4.00;;;;;;;-143.84;33.75;44780.59;5131866;27;20441;-73
2022/06/02 07:17:21;;;;;;;11.60;4.77;;;;;;;-143.84;33.61;44784.41;5131603;27;21008;-73
2022/06/02 07:19:59;;;;;;;14.97;4.20;;;;;;;-143.84;33.80;44830.09;5131178;27;20790;-73
2022/06/02 07:22:35;;;;;;;15.87;4.60;;;;;;;-143.84;33.35;44801.53;5131810;27;20442;-73
2022/06/02 07:25:15;;;;;;;17.03;4.93;;;;;;;-143.84;33.48;44776.78;5131640;27;20832;-73
2022/06/02 07:27:51;;;;;;;14.40;5.13;;;;;;;-143.84;34.67;44801.53;5132054;27;20473;-73
2022/06/02 07:30:44;;;;;;;15.10;4.57;;;;;;;-143.84;33.30;44824.38;5131506;27;20430;-73
2022/06/02 07:33:41;;;;;;;15.00;4.83;;;;;;;-143.84;32.75;44795.81;5131647;27;20446;-73
2022/06/02 07:36:57;;;;;;;13.43;4.23;;;;;;;-143.84;33.35;44801.53;5131203;27;20450;-73
2022/06/02 07:40:00;;;;;;;6.97;4.10;;;;;;;-143.84;34.25;44753.94;5131364;27;20457;-73
2022/06/02 07:42:54;;;;;;;14.23;5.10;;;;;;;-143.84;33.74;44778.69;5128938;27;21003;-73
2022/06/02 07:45:33;;;;;;;12.83;3.77;;;;;;;-143.84;33.20;44797.72;5130922;27;20477;-73
2022/06/02 07:48:31;;;;;;;19.80;4.40;;;;;;;-143.84;33.49;44776.78;5131188;27;20449;-74
2022/06/02 07:51:07;;;;;;;11.97;4.53;;;;;;;-143.84;33.83;44750.13;5131261;27;20438;-73
2022/06/02 07:53:44;;;;;;;13.00;3.73;;;;;;;-143.84;33.80;44792.00;5130982;27;20479;-73
2022/06/02 07:56:21;;;;;;;10.87;5.00;;;;;;;-143.84;35.03;44837.72;5131156;27;20514;-73
2022/06/02 07:59:00;;;;;;;17.93;12.60;;;;;;;-143.84;36.76;44767.25;5130591;27;20473;-73
2022/06/02 08:02:06;;;;;;;15.00;7.93;;;;;;;-143.84;36.89;44811.06;5131044;27;20450;-73
2022/06/02 08:04:44;;;;;;;12.73;6.13;;;;;;;-143.84;35.64;44769.16;5130699;27;20808;-73
2022/06/02 08:07:19;;;;;;;14.80;5.77;;;;;;;-143.84;35.42;44809.16;5130785;27;20437;-73
2022/06/02 08:09:58;;;;;;;8.73;5.43;;;;;;;-143.84;34.86;44793.91;5130838;27;20438;-73
2022/06/02 08:12:35;;;;;;;27.00;5.70;;;;;;;-143.84;35.08;44809.16;5131025;27;20487;-72
2022/06/02 08:15:18;;;;;;;22.17;6.80;;;;;;;-143.84;35.49;44803.44;5130406;27;20484;-72
2022/06/02 08:17:51;;;;;;;11.10;5.90;;;;;;;-143.84;35.97;44809.16;5130729;27;20434;-72
2022/06/02 08:20:29;;;;;;;9.23;6.30;;;;;;;-143.84;36.11;44771.06;5130530;27;20471;-72
2022/06/02 08:23:05;;;;;;;19.67;6.30;;;;;;;-143.84;35.45;44788.22;5130057;27;20503;-73
2022/06/02 08:25:42;;;;;;;21.80;7.30;;;;;;;-143.84;36.07;44797.72;5130088;27;20477;-73
2022/06/02 08:28:34;;;;;;;14.43;6.17;;;;;;;-143.84;35.56;44805.34;5130419;27;21330;-72
2022/06/02 08:31:13;;;;;;;14.63;6.33;;;;;;;-143.84;36.43;44814.88;5130032;27;20495;-72
2022/06/02 08:33:49;;;;;;;15.43;7.60;;;;;;;-143.84;38.08;44799.63;5130070;27;20441;-73
2022/06/02 08:36:25;;;;;;;15.50;5.70;;;;;;;-143.84;37.11;44814.88;5130212;27;20442;-72
2022/06/02 08:39:09;;;;;;;7.83;5.80;;;;;;;-143.84;37.08;44780.59;5130565;27;20442;-73
2022/06/02 08:42:06;;;;;;;20.73;6.60;;;;;;;-143.84;37.38;44799.63;5130397;27;20520;-73
2022/06/02 08:45:26;;;;;;;9.53;6.53;;;;;;;-143.84;36.78;44801.53;5129938;27;20437;-72
2022/06/02 08:48:20;;;;;;;13.33;6.63;;;;;;;-143.84;37.33;44790.13;5096733;27;20438;-72
2022/06/02 08:51:30;;;;;;;14.30;6.13;;;;;;;-143.84;37.19;44761.56;5130024;27;20449;-72
2022/06/02 08:54:31;;;;;;;14.13;6.00;;;;;;;-143.84;36.95;44790.13;5129748;27;20932;-72
2022/06/02 08:57:16;;;;;;;13.13;6.00;;;;;;;-143.84;38.01;44805.34;5129388;27;20445;-72
2022/06/02 09:00:10;;;;;;;11.33;5.40;;;;;;;-143.84;37.52;44812.97;5129238;27;20481;-73
2022/06/02 09:03:16;;;;;;;12.37;5.50;;;;;;;-143.84;37.86;44818.66;5130142;27;20462;-74
2022/06/02 09:06:12;;;;;;;13.70;6.20;;;;;;;-143.84;37.20;44797.72;5130487;27;20466;-75
2022/06/02 09:09:11;;;;;;;11.63;6.20;;;;;;;-143.84;39.11;44812.97;5130652;27;20442;-75
2022/06/02 09:12:22;;;;;;;10.83;6.60;;;;;;;-143.84;39.80;44801.53;5130174;27;20695;-75
2022/06/02 09:15:28;;;;;;;8.00;7.20;;;;;;;-143.84;40.27;44820.56;5095190;27;20495;-75
2022/06/02 09:18:16;;;;;;;12.03;6.40;;;;;;;-143.84;39.01;44803.44;5130659;28;20430;-75
2022/06/02 09:20:50;;;;;;;9.70;5.77;;;;;;;-143.84;39.78;44799.63;5130589;28;20492;-74
2022/06/02 09:23:46;;;;;;;8.60;5.13;;;;;;;-143.84;37.69;44830.09;5131055;28;20454;-75
2022/06/02 09:26:30;;;;;;;13.60;5.20;;;;;;;-143.84;38.03;44833.91;5130725;28;20993;-75
2022/06/02 09:29:21;;;;;;;8.30;4.87;;;;;;;-143.84;37.76;44845.31;5130636;28;20445;-75
2022/06/02 09:32:28;;;;;;;7.60;5.00;;;;;;;-143.84;37.44;44839.63;5130828;28;20439;-75
2022/06/02 09:35:03;;;;;;;14.57;5.07;;;;;;;-143.84;37.24;44854.84;5046829;28;21064;-75
2022/06/02 09:38:05;;;;;;;10.07;5.00;;;;;;;-143.84;37.08;44856.75;5121340;28;20970;-75
2022/06/02 09:40:45;;;;;;;15.27;5.47;;;;;;;-143.84;37.43;44832.00;5130404;27;20506;-75
2022/06/02 09:43:36;;;;;;;6.77;5.20;;;;;;;-143.84;37.40;44832.00;5134237;27;20456;-75
2022/06/02 09:46:22;;;;;;;17.30;5.10;;;;;;;-143.84;38.46;44809.16;5134792;27;20944;-75
2022/06/02 09:49:05;;;;;;;10.43;5.77;;;;;;;-143.84;39.66;44837.72;5135216;27;20422;-75
2022/06/02 09:51:54;;;;;;;8.60;5.90;;;;;;;-143.84;38.67;44841.53;5134459;27;20524;-75
2022/06/02 09:54:57;;;;;;;21.23;6.20;;;;;;;-143.84;38.81;44847.22;5133639;27;20437;-75
2022/06/02 09:57:56;;;;;;;9.73;5.90;;;;;;;-143.84;38.16;44845.31;5134579;27;21247;-75
2022/06/02 10:00:36;;;;;;;10.33;5.67;;;;;;;-143.84;38.89;44858.66;5134193;27;20516;-75
2022/06/02 10:03:26;;;;;;;7.30;6.33;;;;;;;-143.84;38.06;44870.09;5134503;27;20970;-75
2022/06/02 10:06:12;;;;;;;9.43;5.67;;;;;;;-143.84;39.06;44864.38;5134230;27;20535;-75
2022/06/02 10:08:50;;;;;;;11.53;6.20;;;;;;;-143.84;39.50;44830.09;5134436;27;20434;-75
2022/06/02 10:11:29;;;;;;;10.60;7.30;;;;;;;-143.84;39.75;44841.53;5134202;27;20430;-75
2022/06/02 10:14:21;;;;;;;27.20;6.77;;;;;;;-143.84;40.54;44847.22;5134350;27;20483;-75
2022/06/02 10:17:20;;;;;;;11.03;6.23;;;;;;;-143.84;39.89;44851.03;5130553;27;20956;-75
2022/06/02 10:20:11;;;;;;;14.23;6.40;;;;;;;-143.84;39.95;44873.88;5134116;27;20445;-75
2022/06/02 10:22:53;;;;;;;13.63;6.60;;;;;;;-143.84;41.26;44866.28;5134234;27;20794;-74
2022/06/02 10:25:48;;;;;;;14.07;6.53;;;;;;;-143.84;41.37;44871.97;5133954;27;20488;-75
2022/06/02 10:29:04;;;;;;;9.50;6.60;;;;;;;-143.84;41.65;44858.66;5134188;27;20434;-75
2022/06/02 10:32:15;;;;;;;13.20;6.57;;;;;;;-143.84;41.35;44879.59;5113382;27;20442;-75
2022/06/02 10:35:27;;;;;;;14.37;6.10;;;;;;;-143.84;40.88;44866.28;5134005;27;20449;-74
2022/06/02 10:38:23;;;;;;;11.67;5.80;;;;;;;-143.84;39.23;44864.38;5094245;27;20438;-74
2022/06/02 10:41:14;;;;;;;10.57;5.50;;;;;;;-143.84;39.64;44879.59;5133070;27;20437;-75
2022/06/02 10:44:11;;;;;;;14.07;6.03;;;;;;;-143.84;40.77;44852.94;5133599;27;20445;-75
2022/06/02 10:47:34;;;;;;;9.30;5.10;;;;;;;-143.84;40.01;44862.47;5133603;27;20912;-74
2022/06/02 10:50:12;;;;;;;11.27;5.20;;;;;;;-143.84;40.43;44851.03;5133552;27;20493;-75
2022/06/02 10:53:25;;;;;;;8.33;5.13;;;;;;;-143.84;38.71;44879.59;5132772;27;20490;-75
2022/06/02 10:56:22;;;;;;;11.93;5.17;;;;;;;-143.84;39.60;44887.22;5133580;27;20442;-75
2022/06/02 10:59:37;;;;;;;11.87;6.33;;;;;;;-143.84;40.60;44860.56;5132690;27;20534;-75
2022/06/02 11:03:02;;;;;;;11.03;5.23;;;;;;;-143.84;40.61;44870.09;5132530;27;20430;-75
2022/06/02 11:06:11;;;;;;;12.63;5.63;;;;;;;-143.84;40.38;44875.78;5133109;27;20481;-75
2022/06/02 11:09:14;;;;;;;10.20;5.40;;;;;;;-143.84;40.26;44881.50;5132979;27;20435;-75
2022/06/02 11:12:17;;;;;;;12.07;5.87;;;;;;;-143.84;40.78;44906.25;5133483;27;20432;-75
2022/06/02 11:15:14;;;;;;;11.77;5.80;;;;;;;-143.84;42.09;44911.97;5133283;27;20434;-74
2022/06/02 11:18:28;;;;;;;9.93;5.93;;;;;;;-143.84;42.81;44900.53;5133352;27;20863;-75
2022/06/02 11:21:42;;;;;;;10.10;5.97;;;;;;;-143.84;43.62;44877.69;5133029;27;20770;-75
2022/06/02 11:24:46;;;;;;;12.80;6.67;;;;;;;-143.84;45.04;44923.41;5098472;27;20438;-74
2022/06/02 11:27:50;;;;;;;11.47;7.40;;;;;;;-143.84;45.45;44923.41;5132732;27;21010;-74
2022/06/02 11:30:50;;;;;;;12.63;6.47;;;;;;;-143.84;46.06;44891.03;5133028;27;20823;-74
2022/06/02 11:33:40;;;;;;;10.33;6.70;;;;;;;-143.84;45.92;44913.88;5132758;27;20491;-74
2022/06/02 11:36:42;;;;;;;16.60;7.00;;;;;;;-143.84;45.51;44917.69;5132930;27;20457;-74
2022/06/02 11:39:46;;;;;;;11.70;5.73;;;;;;;-143.84;45.28;44934.81;5132425;27;21076;-75
2022/06/02 11:42:28;;;;;;;10.10;5.53;;;;;;;-143.84;45.87;44931.00;5132411;27;20444;-74
2022/06/02 11:45:03;;;;;;;14.33;5.50;;;;;;;-143.84;44.70;44911.97;5132770;27;20437;-74
2022/06/02 11:47:55;;;;;;;10.47;5.80;;;;;;;-143.84;45.41;44885.31;5132387;27;20481;-74
2022/06/02 11:50:54;;;;;;;11.23;6.00;;;;;;;-143.84;45.48;44925.31;5131536;27;20460;-74
2022/06/02 11:53:53;;;;;;;11.40;6.30;;;;;;;-143.84;47.68;44927.19;5132463;27;20438;-74
2022/06/02 11:56:39;;;;;;;9.13;5.43;;;;;;;-143.84;47.23;44927.19;5127744;27;20453;-74
2022/06/02 11:59:41;;;;;;;7.07;5.20;;;;;;;-143.84;46.63;44951.97;5132047;27;20469;-74
2022/06/02 12:02:47;;;;;;;8.67;6.17;;;;;;;-143.84;47.52;44931.00;5128923;27;20480;-74
2022/06/02 12:05:51;;;;;;;14.57;6.30;;;;;;;-143.84;47.91;44921.50;5124856;27;20500;-75
2022/06/02 12:09:02;;;;;;;15.10;6.63;;;;;;;-143.84;48.23;44923.41;5048322;28;20469;-74
2022/06/02 12:11:54;;;;;;;14.23;6.77;;;;;;;-143.84;49.03;44917.69;5082754;27;20446;-72
2022/06/02 12:14:40;;;;;;;16.53;6.17;;;;;;;-143.84;49.57;44913.88;5132221;27;20445;-74
2022/06/02 12:17:32;;;;;;;6.77;6.13;;;;;;;-143.84;49.42;44925.31;5131955;27;20445;-74
2022/06/02 12:20:29;;;;;;;10.07;7.30;;;;;;;-143.84;50.65;44923.41;5132096;27;20542;-74
2022/06/02 12:23:14;;;;;;;18.13;7.40;;;;;;;-143.84;49.86;44919.59;5131358;27;20445;-74
2022/06/02 12:26:06;;;;;;;13.20;7.70;;;;;;;-143.84;51.44;44915.78;5131095;27;20466;-74
2022/06/02 12:29:10;;;;;;;11.53;7.50;;;;;;;-143.84;50.96;44932.91;5111613;27;20445;-74
2022/06/02 12:32:16;;;;;;;10.90;7.87;;;;;;;-143.84;51.13;44942.44;5047980;28;20552;-74
2022/06/02 12:35:24;;;;;;;11.53;8.03;;;;;;;-143.84;52.41;44944.34;5110721;27;20446;-74
2022/06/02 12:38:26;;;;;;;14.10;8.40;;;;;;;-143.84;54.24;44946.25;5131709;27;20522;-74
2022/06/02 12:41:16;;;;;;;13.33;7.60;;;;;;;-143.84;54.03;44940.53;5131520;27;20445;-74
2022/06/02 12:44:24;;;;;;;11.50;8.60;;;;;;;-143.84;56.08;44913.88;5131537;27;20446;-74
2022/06/02 12:47:22;;;;;;;9.93;7.67;;;;;;;-143.84;55.12;44942.44;5131898;27;20477;-74